Terminal Aerodrome Forecast
Issued by NWS Wilmington, OH

Current Version | Previous Version | Text Only | Print | Product List | Glossary Off
Versions: 1 2 3 4 5 6 7 8 9 10 11 12 13 14 15 16 17 18 19 20 21 22 23 24

000
FTUS41 KILN 210538
TAFILN
TAF
KILN 210538Z 2106/2206 12006KT P6SM OVC250
     FM211100 18007KT P6SM BKN220
     FM211500 20011KT P6SM SCT035 BKN220
     FM212100 21010G15KT P6SM VCSH SCT035 OVC080
     FM220000 20008KT P6SM SCT035 OVC050
     FM220300 21006KT 5SM BR BKN022 OVC035=

USA.gov is the U.S. government's official web portal to all federal, state and local government web resources and services.